createdAt,value
2019-02-15T00:00:11.264Z,47.96
2019-02-15T00:02:37.266Z,47.96
2019-02-15T00:05:03.287Z,47.98
2019-02-15T00:07:29.290Z,48.08
2019-02-15T00:09:55.288Z,48.06
2019-02-15T00:12:21.296Z,48.04
2019-02-15T00:14:47.290Z,48.08
2019-02-15T00:17:13.284Z,48.09
2019-02-15T00:19:39.284Z,48.06
2019-02-15T00:22:05.275Z,48.09
2019-02-15T00:24:31.280Z,48.20
2019-02-15T00:26:57.287Z,48.16
2019-02-15T00:29:23.288Z,48.14
2019-02-15T00:31:49.285Z,48.23
2019-02-15T00:34:15.289Z,48.22
2019-02-15T00:36:41.289Z,48.22
2019-02-15T00:39:07.300Z,48.12
2019-02-15T00:41:33.294Z,48.23
2019-02-15T00:43:59.297Z,48.25
2019-02-15T00:46:25.290Z,48.15
2019-02-15T00:48:51.293Z,48.27
2019-02-15T00:51:17.290Z,48.22
2019-02-15T00:53:43.283Z,48.31
2019-02-15T00:56:09.282Z,48.25
2019-02-15T00:58:35.283Z,48.27
2019-02-15T01:01:01.292Z,48.22
2019-02-15T01:03:27.289Z,48.15
2019-02-15T01:05:53.296Z,48.18
2019-02-15T01:08:19.286Z,48.28
2019-02-15T01:10:45.290Z,48.32
2019-02-15T01:13:11.291Z,48.33
2019-02-15T01:15:37.285Z,48.46
2019-02-15T01:18:03.295Z,48.44
2019-02-15T01:20:29.305Z,48.38
2019-02-15T01:22:55.299Z,48.30
2019-02-15T01:25:21.300Z,48.24
2019-02-15T01:27:47.337Z,48.28
2019-02-15T01:30:13.339Z,48.31
2019-02-15T01:32:39.335Z,48.40
2019-02-15T01:35:05.332Z,48.43
2019-02-15T01:37:31.337Z,48.22
2019-02-15T01:39:57.333Z,48.29
2019-02-15T01:42:23.344Z,48.31
2019-02-15T01:44:49.344Z,48.30
2019-02-15T01:47:15.344Z,48.34
2019-02-15T01:49:41.345Z,48.34
2019-02-15T01:52:07.345Z,48.31
2019-02-15T01:54:33.341Z,48.33
2019-02-15T01:56:59.338Z,48.38
2019-02-15T01:59:25.332Z,48.29
2019-02-15T02:01:51.421Z,48.25
2019-02-15T02:04:17.418Z,48.30
2019-02-15T02:06:43.411Z,48.45
2019-02-15T02:09:09.414Z,48.48
2019-02-15T02:11:35.413Z,48.50
2019-02-15T02:14:01.404Z,48.44
2019-02-15T02:16:27.457Z,48.50
2019-02-15T02:18:53.408Z,48.52
2019-02-15T02:21:19.395Z,48.35
2019-02-15T02:23:45.392Z,48.29
2019-02-15T02:26:11.384Z,48.39
2019-02-15T02:28:37.386Z,48.51
2019-02-15T02:31:03.381Z,48.51
2019-02-15T02:33:29.385Z,48.52
2019-02-15T02:35:55.379Z,48.48
2019-02-15T02:38:21.386Z,48.50
2019-02-15T02:40:47.380Z,48.54
2019-02-15T02:43:13.387Z,48.65
2019-02-15T02:45:39.404Z,48.60
2019-02-15T02:48:05.438Z,48.60
2019-02-15T02:50:31.437Z,48.62
2019-02-15T02:52:57.431Z,48.48
2019-02-15T02:55:23.426Z,48.61
2019-02-15T02:57:49.429Z,48.61
2019-02-15T03:00:15.421Z,48.78
2019-02-15T03:02:41.426Z,48.67
2019-02-15T03:05:07.414Z,48.65
2019-02-15T03:07:33.422Z,48.58
2019-02-15T03:09:59.412Z,48.66
2019-02-15T03:12:25.416Z,48.68
2019-02-15T03:14:51.417Z,48.66
2019-02-15T03:17:17.415Z,48.64
2019-02-15T03:19:43.424Z,48.67
2019-02-15T03:22:09.405Z,48.65
2019-02-15T03:24:35.416Z,48.65
2019-02-15T03:27:01.405Z,48.59
2019-02-15T03:29:27.402Z,48.63
2019-02-15T03:31:53.420Z,48.74
2019-02-15T03:34:19.468Z,48.77
2019-02-15T03:36:45.461Z,48.79
2019-02-15T03:39:11.463Z,48.67
2019-02-15T03:41:37.465Z,48.79
2019-02-15T03:44:03.467Z,48.74
2019-02-15T03:46:29.471Z,48.73
2019-02-15T03:48:55.499Z,48.76
2019-02-15T03:51:21.514Z,48.61
2019-02-15T03:53:47.518Z,48.60
2019-02-15T03:56:13.519Z,48.51
2019-02-15T03:58:39.523Z,48.58
2019-02-15T04:01:05.527Z,48.51
2019-02-15T04:03:31.537Z,48.65
2019-02-15T04:05:57.535Z,48.48
2019-02-15T04:08:23.569Z,48.47
2019-02-15T04:10:49.563Z,48.57
2019-02-15T04:13:15.601Z,48.71
2019-02-15T04:15:41.614Z,48.66
2019-02-15T04:18:07.601Z,48.68
2019-02-15T04:20:33.604Z,48.75
2019-02-15T04:22:59.606Z,48.59
2019-02-15T04:25:25.625Z,48.57
2019-02-15T04:27:51.625Z,48.66
2019-02-15T04:30:17.618Z,48.75
2019-02-15T04:32:43.618Z,48.75
2019-02-15T04:35:09.620Z,48.85
2019-02-15T04:37:35.619Z,48.31
2019-02-15T04:40:01.611Z,48.23
2019-02-15T04:42:27.614Z,48.32
2019-02-15T04:44:53.614Z,48.33
2019-02-15T04:47:19.638Z,48.30
2019-02-15T04:49:45.630Z,48.33
2019-02-15T04:52:11.637Z,48.35
2019-02-15T04:54:37.639Z,48.33
2019-02-15T04:57:03.631Z,48.33
2019-02-15T04:59:29.630Z,48.36
2019-02-15T05:01:55.623Z,48.47
2019-02-15T05:04:21.624Z,48.30
2019-02-15T05:06:47.643Z,48.26
2019-02-15T05:09:13.643Z,48.25
2019-02-15T05:11:39.640Z,48.27
2019-02-15T05:14:05.638Z,48.20
2019-02-15T05:16:31.661Z,47.85
2019-02-15T05:18:57.660Z,48.61
2019-02-15T05:21:23.665Z,48.79
2019-02-15T05:23:49.655Z,49.65
2019-02-15T05:26:15.652Z,48.78
2019-02-15T05:28:41.646Z,48.49
2019-02-15T05:31:07.666Z,48.33
2019-02-15T05:33:35.598Z,48.27
2019-02-15T05:35:59.708Z,48.24
2019-02-15T05:38:25.741Z,48.17
2019-02-15T05:40:51.713Z,48.11
2019-02-15T05:43:17.742Z,48.01
2019-02-15T05:45:43.744Z,47.95
2019-02-15T05:48:09.744Z,47.89
2019-02-15T05:50:35.744Z,47.83
2019-02-15T05:53:01.785Z,47.83
2019-02-15T05:55:27.777Z,47.77
2019-02-15T05:57:53.783Z,47.64
2019-02-15T06:00:19.851Z,47.77
2019-02-15T06:02:45.854Z,47.86
2019-02-15T06:05:11.939Z,47.98
2019-02-15T06:07:37.934Z,48.01
2019-02-15T06:10:03.937Z,48.01
2019-02-15T06:12:29.942Z,48.11
2019-02-15T06:14:55.939Z,48.10
2019-02-15T06:17:21.944Z,48.05
2019-02-15T06:19:48.069Z,47.95
2019-02-15T06:22:13.976Z,47.90
2019-02-15T06:24:39.980Z,47.85
2019-02-15T06:27:06.032Z,47.87
2019-02-15T06:29:31.988Z,47.91
2019-02-15T06:31:57.993Z,48.01
2019-02-15T06:34:24.050Z,48.10
2019-02-15T06:36:50.032Z,48.12
2019-02-15T06:39:16.026Z,48.08
2019-02-15T06:41:42.069Z,48.14
2019-02-15T06:44:08.130Z,48.26
2019-02-15T06:46:34.129Z,48.17
2019-02-15T06:49:00.135Z,48.25
2019-02-15T06:51:26.181Z,48.26
2019-02-15T06:53:52.183Z,48.50
2019-02-15T06:56:18.248Z,48.42
2019-02-15T06:58:45.872Z,48.45
2019-02-15T07:01:10.284Z,48.48
2019-02-15T07:03:36.298Z,48.57
2019-02-15T07:06:02.293Z,48.58
2019-02-15T07:08:28.311Z,48.81
2019-02-15T07:10:54.310Z,48.78
2019-02-15T07:13:20.366Z,48.72
2019-02-15T07:15:46.323Z,48.60
2019-02-15T07:18:12.414Z,48.56
2019-02-15T07:20:38.416Z,48.58
2019-02-15T07:23:04.412Z,48.46
2019-02-15T07:25:30.461Z,48.36
2019-02-15T07:27:56.557Z,48.34
2019-02-15T07:30:22.497Z,48.38
2019-02-15T07:32:48.503Z,48.38
2019-02-15T07:35:14.513Z,48.38
2019-02-15T07:37:40.528Z,48.41
2019-02-15T07:40:06.525Z,48.37
2019-02-15T07:42:32.529Z,48.36
2019-02-15T07:44:58.540Z,48.30
2019-02-15T07:47:24.536Z,48.37
2019-02-15T07:49:50.564Z,48.28
2019-02-15T07:52:16.568Z,48.29
2019-02-15T07:54:42.570Z,48.29
2019-02-15T07:57:08.564Z,48.20
2019-02-15T07:59:34.583Z,48.20
2019-02-15T08:02:02.071Z,48.18
2019-02-15T08:04:26.653Z,48.20
2019-02-15T08:06:52.697Z,48.17
2019-02-15T08:09:18.696Z,48.15
2019-02-15T08:11:44.703Z,48.14
2019-02-15T08:14:14.763Z,48.12
2019-02-15T08:16:38.675Z,48.10
2019-02-15T08:19:02.687Z,48.04
2019-02-15T08:21:28.697Z,48.06
2019-02-15T08:23:54.698Z,48.03
2019-02-15T08:26:20.709Z,48.05
2019-02-15T08:28:46.715Z,48.01
2019-02-15T08:31:12.772Z,48.01
2019-02-15T08:33:38.737Z,48.00
2019-02-15T08:36:04.757Z,48.01
2019-02-15T08:38:30.753Z,48.00
2019-02-15T08:40:56.817Z,47.99
2019-02-15T08:43:22.816Z,47.98
2019-02-15T08:45:48.821Z,47.96
2019-02-15T08:48:14.853Z,47.91
2019-02-15T08:50:41.348Z,47.90
2019-02-15T08:53:07.322Z,47.89
2019-02-15T08:55:33.334Z,47.89
2019-02-15T08:57:59.401Z,47.84
2019-02-15T09:00:25.425Z,47.80
2019-02-15T09:02:51.470Z,47.79
2019-02-15T09:05:17.514Z,47.78
2019-02-15T09:07:43.504Z,47.77
2019-02-15T09:10:09.510Z,47.78
2019-02-15T09:12:35.511Z,47.79
2019-02-15T09:15:01.515Z,47.76
2019-02-15T09:17:27.526Z,47.77
2019-02-15T09:19:53.563Z,47.74
2019-02-15T09:22:19.568Z,47.73
2019-02-15T09:24:45.570Z,47.73
2019-02-15T09:27:11.577Z,47.70
2019-02-15T09:29:37.568Z,47.71
2019-02-15T09:32:03.568Z,47.71
2019-02-15T09:34:29.583Z,47.72
2019-02-15T09:36:55.600Z,47.67
2019-02-15T09:39:23.292Z,47.67
2019-02-15T09:41:49.431Z,47.69
2019-02-15T09:44:15.422Z,47.70
2019-02-15T09:46:41.420Z,47.71
2019-02-15T09:49:07.429Z,47.79
2019-02-15T09:51:33.422Z,47.76
2019-02-15T09:53:59.428Z,47.75
2019-02-15T09:56:25.424Z,47.76
2019-02-15T09:58:51.432Z,47.73
2019-02-15T10:01:17.462Z,47.73
2019-02-15T10:03:43.460Z,47.73
2019-02-15T10:06:09.466Z,47.69
2019-02-15T10:08:35.534Z,47.72
2019-02-15T10:11:01.612Z,47.71
2019-02-15T10:13:27.657Z,47.70
2019-02-15T10:15:53.675Z,47.70
2019-02-15T10:18:22.188Z,47.74
2019-02-15T10:20:48.186Z,47.76
2019-02-15T10:23:14.197Z,47.79
2019-02-15T10:25:40.200Z,47.79
2019-02-15T10:28:06.206Z,47.85
2019-02-15T10:30:32.210Z,47.80
2019-02-15T10:32:58.231Z,47.74
2019-02-15T10:35:24.236Z,47.68
2019-02-15T10:37:50.243Z,47.70
2019-02-15T10:40:16.278Z,47.71
2019-02-15T10:42:42.277Z,47.69
2019-02-15T10:45:08.281Z,47.68
2019-02-15T10:47:34.279Z,47.70
2019-02-15T10:50:00.300Z,47.69
2019-02-15T10:52:26.275Z,47.67
2019-02-15T10:54:52.285Z,47.67
2019-02-15T10:57:18.276Z,47.63
2019-02-15T10:59:44.277Z,47.61
2019-02-15T11:02:10.303Z,47.63
2019-02-15T11:04:36.326Z,47.69
2019-02-15T11:07:02.323Z,47.60
2019-02-15T11:09:28.338Z,47.56
2019-02-15T11:11:54.338Z,47.54
2019-02-15T11:14:20.351Z,47.54
2019-02-15T11:16:47.554Z,47.55
2019-02-15T11:19:12.498Z,47.55
2019-02-15T11:21:38.492Z,47.54
2019-02-15T11:24:04.499Z,47.52
2019-02-15T11:26:30.499Z,47.50
2019-02-15T11:28:56.504Z,47.47
2019-02-15T11:31:22.498Z,47.46
2019-02-15T11:33:48.502Z,47.49
2019-02-15T11:36:14.570Z,47.47
2019-02-15T11:38:40.588Z,47.49
2019-02-15T11:41:11.188Z,47.49
2019-02-15T11:43:32.587Z,47.50
2019-02-15T11:45:58.587Z,47.50
2019-02-15T11:48:24.578Z,47.50
2019-02-15T11:50:50.579Z,47.47
2019-02-15T11:53:16.584Z,47.49
2019-02-15T11:55:42.597Z,47.52
2019-02-15T11:58:08.591Z,47.55
2019-02-15T12:00:34.618Z,47.55
2019-02-15T12:03:00.617Z,47.55
2019-02-15T12:05:26.634Z,47.52
2019-02-15T12:07:52.632Z,47.53
2019-02-15T12:10:18.636Z,47.52
2019-02-15T12:12:44.714Z,47.55
2019-02-15T12:15:10.763Z,47.53
2019-02-15T12:17:36.802Z,47.54
2019-02-15T12:20:03.043Z,47.54
2019-02-15T12:22:29.055Z,47.52
2019-02-15T12:24:55.104Z,47.52
2019-02-15T12:27:21.121Z,47.50
2019-02-15T12:29:47.148Z,47.50
2019-02-15T12:32:13.134Z,47.47
2019-02-15T12:34:39.125Z,47.49
2019-02-15T12:39:49.136Z,47.51
2019-02-15T12:42:15.138Z,47.52
2019-02-15T12:44:41.171Z,47.50
2019-02-15T12:47:14.821Z,47.51
2019-02-15T12:49:33.185Z,47.48
2019-02-15T12:51:59.184Z,47.55
2019-02-15T12:54:25.195Z,47.64
2019-02-15T12:56:51.287Z,47.65
2019-02-15T12:59:17.298Z,47.65
2019-02-15T13:01:43.303Z,47.70
2019-02-15T13:04:09.309Z,47.74
2019-02-15T13:06:35.314Z,47.71
2019-02-15T13:09:01.311Z,47.75
2019-02-15T13:11:27.315Z,47.75
2019-02-15T13:13:53.319Z,47.70
2019-02-15T13:16:19.330Z,47.68
2019-02-15T13:18:45.360Z,47.69
2019-02-15T13:21:11.582Z,47.67
2019-02-15T13:23:37.592Z,47.61
2019-02-15T13:26:08.538Z,47.57
2019-02-15T13:28:29.828Z,47.52
2019-02-15T13:30:55.832Z,47.42
2019-02-15T13:33:21.840Z,47.35
2019-02-15T13:35:47.846Z,47.37
2019-02-15T13:38:14.084Z,47.33
2019-02-15T13:40:40.080Z,47.32
2019-02-15T13:43:06.092Z,47.34
2019-02-15T13:45:32.087Z,47.44
2019-02-15T13:47:58.086Z,47.49
2019-02-15T13:50:24.103Z,47.57
2019-02-15T13:52:50.106Z,47.64
2019-02-15T13:55:16.120Z,47.75
2019-02-15T13:57:42.232Z,47.71
2019-02-15T14:00:08.231Z,47.86
2019-02-15T14:02:34.233Z,47.83
2019-02-15T14:05:00.381Z,47.90
2019-02-15T14:07:26.243Z,47.88
2019-02-15T14:09:55.015Z,47.88
2019-02-15T14:12:21.137Z,47.83
2019-02-15T14:14:47.139Z,47.80
2019-02-15T14:17:13.392Z,47.80
2019-02-15T14:19:39.586Z,47.73
2019-02-15T14:22:05.641Z,47.71
2019-02-15T14:24:34.108Z,47.69
2019-02-15T14:27:00.881Z,47.66
2019-02-15T14:29:26.898Z,47.64
2019-02-15T14:31:53.093Z,47.69
2019-02-15T14:34:19.091Z,47.68
2019-02-15T14:36:45.267Z,47.70
2019-02-15T14:39:11.420Z,47.71
2019-02-15T14:41:37.622Z,47.76
2019-02-15T14:44:03.766Z,47.73
2019-02-15T14:46:29.763Z,47.74
2019-02-15T14:48:56.405Z,47.74
2019-02-15T14:51:22.946Z,47.72
2019-02-15T14:53:49.099Z,47.78
2019-02-15T14:56:15.095Z,47.81
2019-02-15T14:58:42.698Z,47.77
2019-02-15T15:01:08.826Z,47.79
2019-02-15T15:03:35.234Z,47.77
2019-02-15T15:06:01.666Z,47.77
2019-02-15T15:08:30.783Z,47.89
2019-02-15T15:10:59.644Z,47.80
2019-02-15T15:13:30.299Z,47.82
2019-02-15T15:15:56.553Z,47.73
2019-02-15T15:18:22.782Z,47.71
2019-02-15T15:20:51.235Z,47.68
2019-02-15T15:23:17.699Z,47.62
2019-02-15T15:25:44.543Z,47.62
2019-02-15T15:28:13.900Z,47.60
2019-02-15T15:30:39.958Z,47.58
2019-02-15T15:33:08.957Z,47.58
2019-02-15T15:35:35.451Z,47.56
2019-02-15T15:38:01.635Z,47.55
2019-02-15T15:40:28.537Z,47.54
2019-02-15T15:42:54.727Z,47.51
2019-02-15T15:45:21.076Z,47.49
2019-02-15T15:47:47.334Z,47.48
2019-02-15T15:50:13.532Z,47.48
2019-02-15T15:52:39.569Z,47.47
2019-02-15T15:55:08.566Z,47.45
2019-02-15T15:57:37.265Z,47.43
2019-02-15T16:00:03.501Z,47.42
2019-02-15T16:02:29.726Z,47.39
2019-02-15T16:04:56.045Z,47.39
2019-02-15T16:07:22.511Z,47.37
2019-02-15T16:09:49.953Z,47.34
2019-02-15T16:12:16.864Z,47.30
2019-02-15T16:14:43.488Z,47.31
2019-02-15T16:17:09.514Z,47.25
2019-02-15T16:19:40.447Z,47.27
2019-02-15T16:22:01.695Z,47.27
2019-02-15T16:24:27.910Z,47.28
2019-02-15T16:26:54.199Z,47.29
2019-02-15T16:29:20.615Z,47.32
2019-02-15T16:31:47.264Z,47.33
2019-02-15T16:34:13.616Z,47.35
2019-02-15T16:36:39.618Z,47.38
2019-02-15T16:39:05.654Z,47.37
2019-02-15T16:41:31.972Z,47.56
2019-02-15T16:43:58.605Z,48.42
2019-02-15T16:46:25.029Z,48.99
2019-02-15T16:48:51.892Z,49.68
2019-02-15T16:51:18.397Z,49.81
2019-02-15T16:53:46.415Z,50.43
2019-02-15T16:56:12.491Z,50.81
2019-02-15T17:01:20.031Z,49.17
2019-02-15T17:04:05.731Z,48.97
2019-02-15T17:06:35.344Z,48.79
2019-02-15T17:09:01.985Z,48.56
2019-02-15T17:11:28.495Z,48.39
2019-02-15T17:13:54.804Z,48.29
2019-02-15T17:16:20.996Z,48.19
2019-02-15T17:18:51.726Z,48.11
2019-02-15T17:21:13.336Z,48.10
2019-02-15T17:23:39.471Z,48.06
2019-02-15T17:26:05.870Z,48.09
2019-02-15T17:28:32.836Z,48.10
2019-02-15T17:30:59.348Z,48.08
2019-02-15T17:33:25.386Z,48.11
2019-02-15T17:35:51.914Z,48.14
2019-02-15T17:38:17.938Z,48.14
2019-02-15T17:40:44.405Z,48.07
2019-02-15T17:43:11.038Z,48.06
2019-02-15T17:45:38.407Z,48.07
2019-02-15T17:48:08.401Z,48.02
2019-02-15T17:50:35.184Z,48.02
2019-02-15T17:53:03.637Z,48.06
2019-02-15T17:55:30.993Z,47.98
2019-02-15T17:58:00.485Z,47.99
2019-02-15T18:00:29.591Z,47.97
2019-02-15T18:02:56.407Z,48.05
2019-02-15T18:05:29.113Z,48.00
2019-02-15T18:07:57.188Z,48.02
2019-02-15T18:10:34.288Z,48.01
2019-02-15T18:13:00.443Z,48.08
2019-02-15T18:15:26.909Z,48.09
2019-02-15T18:17:53.314Z,48.24
2019-02-15T18:20:22.258Z,48.27
2019-02-15T18:22:49.488Z,48.14
2019-02-15T18:25:17.893Z,48.12
2019-02-15T18:27:51.415Z,48.16
2019-02-15T18:30:17.430Z,48.30
2019-02-15T18:32:43.557Z,48.18
2019-02-15T18:35:09.779Z,48.20
2019-02-15T18:37:35.979Z,48.29
2019-02-15T18:40:02.940Z,48.31
2019-02-15T18:42:29.078Z,48.34
2019-02-15T18:44:55.416Z,48.36
2019-02-15T18:47:21.951Z,48.40
2019-02-15T18:49:48.150Z,48.41
2019-02-15T18:52:15.321Z,48.48
2019-02-15T18:54:42.484Z,48.37
2019-02-15T18:57:08.768Z,48.21
2019-02-15T18:59:34.974Z,48.13
2019-02-15T19:02:01.379Z,48.09
2019-02-15T19:04:28.649Z,48.12
2019-02-15T19:06:56.776Z,48.17
2019-02-15T19:09:28.877Z,48.11
2019-02-15T19:11:55.276Z,48.04
2019-02-15T19:14:21.468Z,47.96
2019-02-15T19:16:47.745Z,47.95
2019-02-15T19:19:16.731Z,47.97
2019-02-15T19:21:42.970Z,47.92
2019-02-15T19:24:09.401Z,47.94
2019-02-15T19:26:39.519Z,48.07
2019-02-15T19:29:06.137Z,47.90
2019-02-15T19:31:32.551Z,47.92
2019-02-15T19:33:58.764Z,47.96
2019-02-15T19:36:25.785Z,47.94
2019-02-15T19:38:57.098Z,47.93
2019-02-15T19:41:25.282Z,47.91
2019-02-15T19:43:51.288Z,47.90
2019-02-15T19:46:17.372Z,47.94
2019-02-15T19:48:43.387Z,47.97
2019-02-15T19:51:09.413Z,48.03
2019-02-15T19:53:35.396Z,48.03
2019-02-15T19:56:01.402Z,48.01
2019-02-15T19:58:27.402Z,48.01
2019-02-15T20:00:53.515Z,48.03
2019-02-15T20:03:19.515Z,48.05
2019-02-15T20:05:45.521Z,48.03
2019-02-15T20:08:11.594Z,48.06
2019-02-15T20:10:37.623Z,48.02
2019-02-15T20:13:03.619Z,47.99
2019-02-15T20:15:29.618Z,48.03
2019-02-15T20:17:55.625Z,48.05
2019-02-15T20:20:21.621Z,48.04
2019-02-15T20:22:47.626Z,48.01
2019-02-15T20:25:13.655Z,48.05
2019-02-15T20:27:39.662Z,48.03
2019-02-15T20:30:05.657Z,48.06
2019-02-15T20:32:31.732Z,48.09
2019-02-15T20:34:57.728Z,48.09
2019-02-15T20:37:23.729Z,48.08
2019-02-15T20:39:49.765Z,48.15
2019-02-15T20:42:16.617Z,48.20
2019-02-15T20:44:50.865Z,48.23
2019-02-15T20:47:18.193Z,48.22
2019-02-15T20:49:44.935Z,48.22
2019-02-15T20:52:11.880Z,48.27
2019-02-15T20:54:38.518Z,48.27
2019-02-15T20:57:04.552Z,48.22
2019-02-15T20:59:30.562Z,48.28
2019-02-15T21:01:56.586Z,48.25
2019-02-15T21:04:22.618Z,48.25
2019-02-15T21:06:48.619Z,48.27
2019-02-15T21:09:14.622Z,48.26
2019-02-15T21:11:40.910Z,48.25
2019-02-15T21:14:06.940Z,48.28
2019-02-15T21:16:33.004Z,48.37
2019-02-15T21:18:59.016Z,48.26
2019-02-15T21:21:25.023Z,48.29
2019-02-15T21:23:51.072Z,48.35
2019-02-15T21:26:17.088Z,48.28
2019-02-15T21:28:43.099Z,48.24
2019-02-15T21:31:09.097Z,48.22
2019-02-15T21:33:35.090Z,48.22
2019-02-15T21:36:01.083Z,48.26
2019-02-15T21:38:27.106Z,48.22
2019-02-15T21:40:53.236Z,48.20
2019-02-15T21:43:19.393Z,48.22
2019-02-15T21:45:45.462Z,48.22
2019-02-15T21:48:11.464Z,48.23
2019-02-15T21:50:37.465Z,48.22
2019-02-15T21:53:03.463Z,48.22
2019-02-15T21:55:29.464Z,48.19
2019-02-15T21:58:01.391Z,48.23
2019-02-15T22:00:21.539Z,48.21
2019-02-15T22:02:47.533Z,48.19
2019-02-15T22:05:13.541Z,48.19
2019-02-15T22:07:39.537Z,48.16
2019-02-15T22:10:05.548Z,48.19
2019-02-15T22:12:31.544Z,48.13
2019-02-15T22:14:57.547Z,48.11
2019-02-15T22:17:23.549Z,48.08
2019-02-15T22:19:49.580Z,48.02
2019-02-15T22:22:15.576Z,48.01
2019-02-15T22:24:41.610Z,48.02
2019-02-15T22:27:07.607Z,48.00
2019-02-15T22:29:33.622Z,47.98
2019-02-15T22:31:59.619Z,47.98
2019-02-15T22:34:25.636Z,47.98
2019-02-15T22:36:51.644Z,48.00
2019-02-15T22:39:17.633Z,47.92
2019-02-15T22:41:43.660Z,47.91
2019-02-15T22:44:09.660Z,47.93
2019-02-15T22:46:35.659Z,47.89
2019-02-15T22:49:01.655Z,47.88
2019-02-15T22:51:27.652Z,47.87
2019-02-15T22:53:53.656Z,47.88
2019-02-15T22:56:19.651Z,47.88
2019-02-15T22:58:45.675Z,47.84
2019-02-15T23:01:11.676Z,47.83
2019-02-15T23:03:37.678Z,47.83
2019-02-15T23:06:03.680Z,47.81
2019-02-15T23:08:29.677Z,47.78
2019-02-15T23:10:55.683Z,47.77
2019-02-15T23:13:21.683Z,47.75
2019-02-15T23:15:47.687Z,47.73
2019-02-15T23:18:13.681Z,47.73
2019-02-15T23:20:45.244Z,47.71
2019-02-15T23:23:05.684Z,47.75
2019-02-15T23:25:31.689Z,47.68
2019-02-15T23:27:57.683Z,47.64
2019-02-15T23:30:23.672Z,47.67
2019-02-15T23:32:49.680Z,47.68
2019-02-15T23:35:15.688Z,47.63
2019-02-15T23:37:41.690Z,47.66
2019-02-15T23:40:07.682Z,47.61
2019-02-15T23:42:33.684Z,47.61
2019-02-15T23:44:59.683Z,47.56
2019-02-15T23:47:25.691Z,47.61
2019-02-15T23:49:51.752Z,47.62
2019-02-15T23:52:17.760Z,47.59
2019-02-15T23:54:43.757Z,47.59
2019-02-15T23:57:09.785Z,47.58
2019-02-15T23:59:35.783Z,47.44
